Terminal Aerodrome Forecast
Issued by NWS Duluth, MN

Home | Current Version | Previous Version | Graphics & Text | Print | Product List | Glossary On
Versions: 1 2 3 4 5 6 7 8 9 10 11 12 13 14 15 16 17 18 19 20
000
FTUS43 KDLH 010540
TAFDLH
TAF
KDLH 010540Z 0106/0206 22006KT 6SM HZ SCT035 BKN050
     FM011700 26009G15KT P6SM FEW040 SCT150
     FM020000 24005KT P6SM SCT120=

USA.gov is the U.S. government's official web portal to all federal, state and local government web resources and services.